sensor_id;sensor_type;location;lat;lon;timestamp;P1;durP1;ratioP1;P2;durP2;ratioP2
55069;SDS011;40967;52.070;8.596;2022-07-29T00:00:36;0.33;;;0.20;;
55069;SDS011;40967;52.070;8.596;2022-07-29T00:03:02;0.20;;;0.10;;
55069;SDS011;40967;52.070;8.596;2022-07-29T00:05:28;0.30;;;0.10;;
55069;SDS011;40967;52.070;8.596;2022-07-29T00:07:53;0.10;;;0.10;;
55069;SDS011;40967;52.070;8.596;2022-07-29T00:10:18;0.17;;;0.10;;
55069;SDS011;40967;52.070;8.596;2022-07-29T00:12:44;0.50;;;0.20;;
55069;SDS011;40967;52.070;8.596;2022-07-29T00:15:09;0.40;;;0.20;;
55069;SDS011;40967;52.070;8.596;2022-07-29T00:17:34;0.20;;;0.20;;
55069;SDS011;40967;52.070;8.596;2022-07-29T00:20:00;0.57;;;0.30;;
55069;SDS011;40967;52.070;8.596;2022-07-29T00:22:26;0.30;;;0.10;;
55069;SDS011;40967;52.070;8.596;2022-07-29T00:24:51;0.40;;;0.20;;
55069;SDS011;40967;52.070;8.596;2022-07-29T00:27:17;0.40;;;0.20;;
55069;SDS011;40967;52.070;8.596;2022-07-29T00:29:42;0.20;;;0.20;;
55069;SDS011;40967;52.070;8.596;2022-07-29T00:32:08;0.50;;;0.20;;
55069;SDS011;40967;52.070;8.596;2022-07-29T00:34:33;0.20;;;0.20;;
55069;SDS011;40967;52.070;8.596;2022-07-29T00:37:18;0.32;;;0.22;;
55069;SDS011;40967;52.070;8.596;2022-07-29T00:39:43;0.40;;;0.20;;
55069;SDS011;40967;52.070;8.596;2022-07-29T00:42:08;0.30;;;0.20;;
55069;SDS011;40967;52.070;8.596;2022-07-29T00:44:38;0.15;;;0.10;;
55069;SDS011;40967;52.070;8.596;2022-07-29T00:47:04;0.57;;;0.25;;
55069;SDS011;40967;52.070;8.596;2022-07-29T00:49:30;0.30;;;0.20;;
55069;SDS011;40967;52.070;8.596;2022-07-29T00:51:56;0.55;;;0.30;;
55069;SDS011;40967;52.070;8.596;2022-07-29T00:54:22;0.10;;;0.05;;
55069;SDS011;40967;52.070;8.596;2022-07-29T00:56:48;0.30;;;0.10;;
55069;SDS011;40967;52.070;8.596;2022-07-29T00:59:14;0.30;;;0.10;;
55069;SDS011;40967;52.070;8.596;2022-07-29T01:01:39;0.33;;;0.10;;
55069;SDS011;40967;52.070;8.596;2022-07-29T01:04:05;0.60;;;0.30;;
55069;SDS011;40967;52.070;8.596;2022-07-29T01:06:31;0.30;;;0.20;;
55069;SDS011;40967;52.070;8.596;2022-07-29T01:08:57;0.47;;;0.22;;
55069;SDS011;40967;52.070;8.596;2022-07-29T01:11:23;0.50;;;0.20;;
55069;SDS011;40967;52.070;8.596;2022-07-29T01:13:49;0.32;;;0.20;;
55069;SDS011;40967;52.070;8.596;2022-07-29T01:16:16;0.28;;;0.20;;
55069;SDS011;40967;52.070;8.596;2022-07-29T01:18:46;0.10;;;0.10;;
55069;SDS011;40967;52.070;8.596;2022-07-29T01:21:21;0.20;;;0.20;;
55069;SDS011;40967;52.070;8.596;2022-07-29T01:26:45;0.17;;;0.10;;
55069;SDS011;40967;52.070;8.596;2022-07-29T01:29:30;0.13;;;0.10;;
55069;SDS011;40967;52.070;8.596;2022-07-29T01:32:05;0.65;;;0.10;;
55069;SDS011;40967;52.070;8.596;2022-07-29T01:34:47;0.30;;;0.10;;
55069;SDS011;40967;52.070;8.596;2022-07-29T01:39:51;0.40;;;0.20;;
55069;SDS011;40967;52.070;8.596;2022-07-29T01:42:20;0.40;;;0.20;;
55069;SDS011;40967;52.070;8.596;2022-07-29T01:45:07;0.25;;;0.20;;
55069;SDS011;40967;52.070;8.596;2022-07-29T01:47:38;0.30;;;0.20;;
55069;SDS011;40967;52.070;8.596;2022-07-29T01:50:08;0.63;;;0.25;;
55069;SDS011;40967;52.070;8.596;2022-07-29T01:52:42;0.35;;;0.20;;
55069;SDS011;40967;52.070;8.596;2022-07-29T01:55:15;0.22;;;0.20;;
55069;SDS011;40967;52.070;8.596;2022-07-29T01:57:43;0.63;;;0.22;;
55069;SDS011;40967;52.070;8.596;2022-07-29T02:00:11;0.55;;;0.20;;
55069;SDS011;40967;52.070;8.596;2022-07-29T02:02:37;0.90;;;0.30;;
55069;SDS011;40967;52.070;8.596;2022-07-29T02:05:06;0.50;;;0.20;;
55069;SDS011;40967;52.070;8.596;2022-07-29T02:07:34;0.28;;;0.20;;
55069;SDS011;40967;52.070;8.596;2022-07-29T02:10:02;0.73;;;0.30;;
55069;SDS011;40967;52.070;8.596;2022-07-29T02:12:30;0.75;;;0.25;;
55069;SDS011;40967;52.070;8.596;2022-07-29T02:14:59;1.05;;;0.35;;
55069;SDS011;40967;52.070;8.596;2022-07-29T02:17:27;0.20;;;0.17;;
55069;SDS011;40967;52.070;8.596;2022-07-29T02:20:01;0.38;;;0.20;;
55069;SDS011;40967;52.070;8.596;2022-07-29T02:22:29;0.60;;;0.30;;
55069;SDS011;40967;52.070;8.596;2022-07-29T02:24:56;0.20;;;0.20;;
55069;SDS011;40967;52.070;8.596;2022-07-29T02:27:23;0.20;;;0.20;;
55069;SDS011;40967;52.070;8.596;2022-07-29T02:29:50;0.28;;;0.20;;
55069;SDS011;40967;52.070;8.596;2022-07-29T02:32:17;0.40;;;0.20;;
55069;SDS011;40967;52.070;8.596;2022-07-29T02:34:44;0.50;;;0.20;;
55069;SDS011;40967;52.070;8.596;2022-07-29T02:37:11;0.70;;;0.20;;
55069;SDS011;40967;52.070;8.596;2022-07-29T02:39:39;0.40;;;0.20;;
55069;SDS011;40967;52.070;8.596;2022-07-29T02:42:07;0.90;;;0.28;;
55069;SDS011;40967;52.070;8.596;2022-07-29T02:44:37;0.28;;;0.20;;
55069;SDS011;40967;52.070;8.596;2022-07-29T02:49:38;0.25;;;0.15;;
55069;SDS011;40967;52.070;8.596;2022-07-29T02:52:18;0.20;;;0.20;;
55069;SDS011;40967;52.070;8.596;2022-07-29T03:00:09;0.40;;;0.17;;
55069;SDS011;40967;52.070;8.596;2022-07-29T03:02:36;0.50;;;0.20;;
55069;SDS011;40967;52.070;8.596;2022-07-29T03:05:06;0.40;;;0.10;;
55069;SDS011;40967;52.070;8.596;2022-07-29T03:07:34;0.38;;;0.20;;
55069;SDS011;40967;52.070;8.596;2022-07-29T03:10:00;0.32;;;0.20;;
55069;SDS011;40967;52.070;8.596;2022-07-29T03:12:27;0.20;;;0.20;;
55069;SDS011;40967;52.070;8.596;2022-07-29T03:14:54;0.10;;;0.10;;
55069;SDS011;40967;52.070;8.596;2022-07-29T03:17:20;0.50;;;0.17;;
55069;SDS011;40967;52.070;8.596;2022-07-29T03:19:46;0.10;;;0.10;;
55069;SDS011;40967;52.070;8.596;2022-07-29T03:22:12;0.40;;;0.20;;
55069;SDS011;40967;52.070;8.596;2022-07-29T03:24:38;0.65;;;0.10;;
55069;SDS011;40967;52.070;8.596;2022-07-29T03:27:04;0.20;;;0.10;;
55069;SDS011;40967;52.070;8.596;2022-07-29T03:29:30;0.13;;;0.13;;
55069;SDS011;40967;52.070;8.596;2022-07-29T03:31:57;0.40;;;0.20;;
55069;SDS011;40967;52.070;8.596;2022-07-29T03:34:22;0.40;;;0.10;;
55069;SDS011;40967;52.070;8.596;2022-07-29T03:36:47;0.30;;;0.10;;
55069;SDS011;40967;52.070;8.596;2022-07-29T03:39:15;0.40;;;0.20;;
55069;SDS011;40967;52.070;8.596;2022-07-29T03:41:47;0.40;;;0.20;;
55069;SDS011;40967;52.070;8.596;2022-07-29T03:44:14;0.30;;;0.10;;
55069;SDS011;40967;52.070;8.596;2022-07-29T03:46:41;0.10;;;0.10;;
55069;SDS011;40967;52.070;8.596;2022-07-29T03:49:08;0.63;;;0.25;;
55069;SDS011;40967;52.070;8.596;2022-07-29T03:51:36;0.30;;;0.20;;
55069;SDS011;40967;52.070;8.596;2022-07-29T03:54:02;0.70;;;0.20;;
55069;SDS011;40967;52.070;8.596;2022-07-29T03:56:29;0.70;;;0.20;;
55069;SDS011;40967;52.070;8.596;2022-07-29T03:58:57;0.30;;;0.15;;
55069;SDS011;40967;52.070;8.596;2022-07-29T04:01:24;0.38;;;0.20;;
55069;SDS011;40967;52.070;8.596;2022-07-29T04:03:50;0.30;;;0.10;;
55069;SDS011;40967;52.070;8.596;2022-07-29T04:06:16;0.20;;;0.10;;
55069;SDS011;40967;52.070;8.596;2022-07-29T04:08:41;0.30;;;0.20;;
55069;SDS011;40967;52.070;8.596;2022-07-29T04:11:06;0.30;;;0.20;;
55069;SDS011;40967;52.070;8.596;2022-07-29T04:13:32;0.80;;;0.30;;
55069;SDS011;40967;52.070;8.596;2022-07-29T04:15:57;0.73;;;0.30;;
55069;SDS011;40967;52.070;8.596;2022-07-29T04:18:24;0.73;;;0.20;;
55069;SDS011;40967;52.070;8.596;2022-07-29T04:20:49;0.50;;;0.30;;
55069;SDS011;40967;52.070;8.596;2022-07-29T04:23:15;0.40;;;0.22;;
55069;SDS011;40967;52.070;8.596;2022-07-29T04:25:40;0.30;;;0.10;;
55069;SDS011;40967;52.070;8.596;2022-07-29T04:28:07;0.27;;;0.20;;
55069;SDS011;40967;52.070;8.596;2022-07-29T04:30:34;0.40;;;0.20;;
55069;SDS011;40967;52.070;8.596;2022-07-29T04:33:01;0.22;;;0.20;;
55069;SDS011;40967;52.070;8.596;2022-07-29T04:35:28;0.57;;;0.20;;
55069;SDS011;40967;52.070;8.596;2022-07-29T04:37:54;0.80;;;0.20;;
55069;SDS011;40967;52.070;8.596;2022-07-29T04:40:20;0.30;;;0.30;;
55069;SDS011;40967;52.070;8.596;2022-07-29T04:42:46;0.60;;;0.30;;
55069;SDS011;40967;52.070;8.596;2022-07-29T04:45:11;0.43;;;0.20;;
55069;SDS011;40967;52.070;8.596;2022-07-29T04:47:37;0.47;;;0.30;;
55069;SDS011;40967;52.070;8.596;2022-07-29T04:50:02;0.70;;;0.20;;
55069;SDS011;40967;52.070;8.596;2022-07-29T04:52:28;0.17;;;0.15;;
55069;SDS011;40967;52.070;8.596;2022-07-29T04:54:53;0.10;;;0.10;;
55069;SDS011;40967;52.070;8.596;2022-07-29T04:57:19;0.40;;;0.20;;
55069;SDS011;40967;52.070;8.596;2022-07-29T04:59:44;0.40;;;0.20;;
55069;SDS011;40967;52.070;8.596;2022-07-29T05:02:09;0.20;;;0.10;;
55069;SDS011;40967;52.070;8.596;2022-07-29T05:04:35;0.30;;;0.20;;
55069;SDS011;40967;52.070;8.596;2022-07-29T05:07:00;0.23;;;0.20;;
55069;SDS011;40967;52.070;8.596;2022-07-29T05:09:26;0.50;;;0.20;;
55069;SDS011;40967;52.070;8.596;2022-07-29T05:11:51;0.37;;;0.20;;
55069;SDS011;40967;52.070;8.596;2022-07-29T05:14:16;0.33;;;0.20;;
55069;SDS011;40967;52.070;8.596;2022-07-29T05:16:42;1.10;;;0.30;;
55069;SDS011;40967;52.070;8.596;2022-07-29T05:19:08;0.32;;;0.13;;
55069;SDS011;40967;52.070;8.596;2022-07-29T05:21:33;0.63;;;0.30;;
55069;SDS011;40967;52.070;8.596;2022-07-29T05:23:59;0.47;;;0.30;;
55069;SDS011;40967;52.070;8.596;2022-07-29T05:26:24;0.50;;;0.30;;
55069;SDS011;40967;52.070;8.596;2022-07-29T05:28:50;0.50;;;0.30;;
55069;SDS011;40967;52.070;8.596;2022-07-29T05:31:15;0.70;;;0.22;;
55069;SDS011;40967;52.070;8.596;2022-07-29T05:33:41;0.40;;;0.20;;
55069;SDS011;40967;52.070;8.596;2022-07-29T05:36:07;0.40;;;0.22;;
55069;SDS011;40967;52.070;8.596;2022-07-29T05:38:33;0.40;;;0.20;;
55069;SDS011;40967;52.070;8.596;2022-07-29T05:40:59;0.57;;;0.20;;
55069;SDS011;40967;52.070;8.596;2022-07-29T05:43:25;0.47;;;0.30;;
55069;SDS011;40967;52.070;8.596;2022-07-29T05:45:51;0.33;;;0.20;;
55069;SDS011;40967;52.070;8.596;2022-07-29T05:48:16;0.70;;;0.20;;
55069;SDS011;40967;52.070;8.596;2022-07-29T05:50:42;0.30;;;0.20;;
55069;SDS011;40967;52.070;8.596;2022-07-29T05:53:07;0.20;;;0.20;;
55069;SDS011;40967;52.070;8.596;2022-07-29T05:55:32;0.50;;;0.20;;
55069;SDS011;40967;52.070;8.596;2022-07-29T05:57:58;0.30;;;0.20;;
55069;SDS011;40967;52.070;8.596;2022-07-29T06:00:23;0.27;;;0.20;;
55069;SDS011;40967;52.070;8.596;2022-07-29T06:02:48;0.20;;;0.20;;
55069;SDS011;40967;52.070;8.596;2022-07-29T06:05:14;0.50;;;0.20;;
55069;SDS011;40967;52.070;8.596;2022-07-29T06:07:40;0.38;;;0.20;;
55069;SDS011;40967;52.070;8.596;2022-07-29T06:10:05;0.30;;;0.10;;
55069;SDS011;40967;52.070;8.596;2022-07-29T06:12:31;0.40;;;0.10;;
55069;SDS011;40967;52.070;8.596;2022-07-29T06:14:56;0.37;;;0.20;;
55069;SDS011;40967;52.070;8.596;2022-07-29T06:17:22;0.10;;;0.10;;
55069;SDS011;40967;52.070;8.596;2022-07-29T06:19:48;0.40;;;0.20;;
55069;SDS011;40967;52.070;8.596;2022-07-29T06:22:16;0.30;;;0.20;;
55069;SDS011;40967;52.070;8.596;2022-07-29T06:24:42;0.30;;;0.20;;
55069;SDS011;40967;52.070;8.596;2022-07-29T06:27:09;0.60;;;0.22;;
55069;SDS011;40967;52.070;8.596;2022-07-29T06:29:37;0.40;;;0.20;;
55069;SDS011;40967;52.070;8.596;2022-07-29T06:32:04;0.30;;;0.20;;
55069;SDS011;40967;52.070;8.596;2022-07-29T06:34:29;0.50;;;0.30;;
55069;SDS011;40967;52.070;8.596;2022-07-29T06:36:55;0.13;;;0.10;;
55069;SDS011;40967;52.070;8.596;2022-07-29T06:39:20;0.27;;;0.10;;
55069;SDS011;40967;52.070;8.596;2022-07-29T06:41:46;0.63;;;0.20;;
55069;SDS011;40967;52.070;8.596;2022-07-29T06:44:15;1.38;;;0.10;;
55069;SDS011;40967;52.070;8.596;2022-07-29T06:46:41;0.50;;;0.10;;
55069;SDS011;40967;52.070;8.596;2022-07-29T06:49:07;0.40;;;0.20;;
55069;SDS011;40967;52.070;8.596;2022-07-29T06:51:32;0.50;;;0.20;;
55069;SDS011;40967;52.070;8.596;2022-07-29T06:53:58;0.30;;;0.20;;
55069;SDS011;40967;52.070;8.596;2022-07-29T06:56:23;0.40;;;0.20;;
55069;SDS011;40967;52.070;8.596;2022-07-29T06:58:49;0.35;;;0.17;;
55069;SDS011;40967;52.070;8.596;2022-07-29T07:01:15;0.30;;;0.20;;
55069;SDS011;40967;52.070;8.596;2022-07-29T07:03:41;0.20;;;0.13;;
55069;SDS011;40967;52.070;8.596;2022-07-29T07:06:07;0.20;;;0.10;;
55069;SDS011;40967;52.070;8.596;2022-07-29T07:08:34;0.47;;;0.20;;
55069;SDS011;40967;52.070;8.596;2022-07-29T07:11:00;0.20;;;0.20;;
55069;SDS011;40967;52.070;8.596;2022-07-29T07:13:25;0.40;;;0.20;;
55069;SDS011;40967;52.070;8.596;2022-07-29T07:15:51;0.40;;;0.20;;
55069;SDS011;40967;52.070;8.596;2022-07-29T07:18:17;0.20;;;0.17;;
55069;SDS011;40967;52.070;8.596;2022-07-29T07:20:43;0.10;;;0.10;;
55069;SDS011;40967;52.070;8.596;2022-07-29T07:23:09;0.40;;;0.20;;
55069;SDS011;40967;52.070;8.596;2022-07-29T07:25:35;0.68;;;0.30;;
55069;SDS011;40967;52.070;8.596;2022-07-29T07:28:01;0.30;;;0.13;;
55069;SDS011;40967;52.070;8.596;2022-07-29T07:30:28;0.30;;;0.20;;
55069;SDS011;40967;52.070;8.596;2022-07-29T07:32:54;0.23;;;0.23;;
55069;SDS011;40967;52.070;8.596;2022-07-29T07:35:20;0.65;;;0.30;;
55069;SDS011;40967;52.070;8.596;2022-07-29T07:37:45;0.70;;;0.23;;
55069;SDS011;40967;52.070;8.596;2022-07-29T07:40:11;1.33;;;0.20;;
55069;SDS011;40967;52.070;8.596;2022-07-29T07:42:37;0.45;;;0.30;;
55069;SDS011;40967;52.070;8.596;2022-07-29T07:45:03;0.38;;;0.15;;
55069;SDS011;40967;52.070;8.596;2022-07-29T07:47:30;0.43;;;0.30;;
55069;SDS011;40967;52.070;8.596;2022-07-29T07:49:56;0.77;;;0.30;;
55069;SDS011;40967;52.070;8.596;2022-07-29T07:52:21;0.40;;;0.20;;
55069;SDS011;40967;52.070;8.596;2022-07-29T07:54:47;0.68;;;0.30;;
55069;SDS011;40967;52.070;8.596;2022-07-29T07:57:13;1.15;;;0.47;;
55069;SDS011;40967;52.070;8.596;2022-07-29T07:59:39;0.90;;;0.30;;
55069;SDS011;40967;52.070;8.596;2022-07-29T08:02:05;0.80;;;0.30;;
55069;SDS011;40967;52.070;8.596;2022-07-29T08:04:31;1.25;;;0.30;;
55069;SDS011;40967;52.070;8.596;2022-07-29T08:06:56;0.90;;;0.40;;
55069;SDS011;40967;52.070;8.596;2022-07-29T08:09:23;0.70;;;0.50;;
55069;SDS011;40967;52.070;8.596;2022-07-29T08:11:50;0.90;;;0.40;;
55069;SDS011;40967;52.070;8.596;2022-07-29T08:14:16;0.20;;;0.20;;
55069;SDS011;40967;52.070;8.596;2022-07-29T08:16:41;0.47;;;0.20;;
55069;SDS011;40967;52.070;8.596;2022-07-29T08:19:07;0.47;;;0.20;;
55069;SDS011;40967;52.070;8.596;2022-07-29T08:21:32;0.50;;;0.30;;
55069;SDS011;40967;52.070;8.596;2022-07-29T08:23:58;1.20;;;0.30;;
55069;SDS011;40967;52.070;8.596;2022-07-29T08:26:42;0.17;;;0.10;;
55069;SDS011;40967;52.070;8.596;2022-07-29T08:29:08;0.20;;;0.20;;
55069;SDS011;40967;52.070;8.596;2022-07-29T08:31:35;0.55;;;0.28;;
55069;SDS011;40967;52.070;8.596;2022-07-29T08:34:02;0.50;;;0.30;;
55069;SDS011;40967;52.070;8.596;2022-07-29T08:36:28;0.20;;;0.20;;
55069;SDS011;40967;52.070;8.596;2022-07-29T08:38:54;0.67;;;0.30;;
55069;SDS011;40967;52.070;8.596;2022-07-29T08:41:19;1.10;;;0.50;;
55069;SDS011;40967;52.070;8.596;2022-07-29T08:43:45;0.93;;;0.38;;
55069;SDS011;40967;52.070;8.596;2022-07-29T08:46:11;0.77;;;0.30;;
55069;SDS011;40967;52.070;8.596;2022-07-29T08:48:36;0.60;;;0.25;;
55069;SDS011;40967;52.070;8.596;2022-07-29T08:51:03;0.30;;;0.20;;
55069;SDS011;40967;52.070;8.596;2022-07-29T08:53:31;0.43;;;0.30;;
55069;SDS011;40967;52.070;8.596;2022-07-29T08:55:57;1.38;;;0.38;;
55069;SDS011;40967;52.070;8.596;2022-07-29T08:58:23;0.53;;;0.30;;
55069;SDS011;40967;52.070;8.596;2022-07-29T09:00:54;0.20;;;0.10;;
55069;SDS011;40967;52.070;8.596;2022-07-29T09:03:22;0.28;;;0.20;;
55069;SDS011;40967;52.070;8.596;2022-07-29T09:05:49;0.60;;;0.20;;
55069;SDS011;40967;52.070;8.596;2022-07-29T09:08:16;0.43;;;0.30;;
55069;SDS011;40967;52.070;8.596;2022-07-29T09:10:42;1.60;;;0.57;;
55069;SDS011;40967;52.070;8.596;2022-07-29T09:13:08;1.40;;;0.50;;
55069;SDS011;40967;52.070;8.596;2022-07-29T09:15:33;0.60;;;0.30;;
55069;SDS011;40967;52.070;8.596;2022-07-29T09:17:58;0.90;;;0.30;;
55069;SDS011;40967;52.070;8.596;2022-07-29T09:20:25;0.55;;;0.30;;
55069;SDS011;40967;52.070;8.596;2022-07-29T09:22:51;0.60;;;0.30;;
55069;SDS011;40967;52.070;8.596;2022-07-29T09:25:33;1.25;;;0.52;;
55069;SDS011;40967;52.070;8.596;2022-07-29T09:30:36;1.67;;;0.60;;
55069;SDS011;40967;52.070;8.596;2022-07-29T09:33:20;1.10;;;0.60;;
55069;SDS011;40967;52.070;8.596;2022-07-29T09:35:58;1.00;;;0.53;;
55069;SDS011;40967;52.070;8.596;2022-07-29T09:38:34;0.95;;;0.60;;
55069;SDS011;40967;52.070;8.596;2022-07-29T09:41:02;1.45;;;0.60;;
55069;SDS011;40967;52.070;8.596;2022-07-29T09:43:28;1.10;;;0.50;;
55069;SDS011;40967;52.070;8.596;2022-07-29T09:45:54;1.40;;;0.70;;
55069;SDS011;40967;52.070;8.596;2022-07-29T09:48:24;1.27;;;0.50;;
55069;SDS011;40967;52.070;8.596;2022-07-29T09:50:50;1.27;;;0.60;;
55069;SDS011;40967;52.070;8.596;2022-07-29T09:53:30;1.13;;;0.60;;
55069;SDS011;40967;52.070;8.596;2022-07-29T09:55:57;1.13;;;0.70;;
55069;SDS011;40967;52.070;8.596;2022-07-29T09:58:23;1.70;;;0.70;;
55069;SDS011;40967;52.070;8.596;2022-07-29T10:00:49;1.63;;;0.70;;
55069;SDS011;40967;52.070;8.596;2022-07-29T10:03:15;2.57;;;1.00;;
55069;SDS011;40967;52.070;8.596;2022-07-29T10:05:42;2.60;;;1.00;;
55069;SDS011;40967;52.070;8.596;2022-07-29T10:08:08;2.65;;;0.88;;
55069;SDS011;40967;52.070;8.596;2022-07-29T10:10:36;1.58;;;0.70;;
55069;SDS011;40967;52.070;8.596;2022-07-29T10:13:09;2.00;;;0.90;;
55069;SDS011;40967;52.070;8.596;2022-07-29T10:15:38;2.22;;;1.20;;
55069;SDS011;40967;52.070;8.596;2022-07-29T10:18:06;1.65;;;0.80;;
55069;SDS011;40967;52.070;8.596;2022-07-29T10:20:33;2.08;;;0.93;;
55069;SDS011;40967;52.070;8.596;2022-07-29T10:22:58;2.07;;;1.00;;
55069;SDS011;40967;52.070;8.596;2022-07-29T10:25:24;1.73;;;0.90;;
55069;SDS011;40967;52.070;8.596;2022-07-29T10:27:50;1.85;;;0.90;;
55069;SDS011;40967;52.070;8.596;2022-07-29T10:30:17;1.83;;;0.90;;
55069;SDS011;40967;52.070;8.596;2022-07-29T10:43:51;1.45;;;0.85;;
55069;SDS011;40967;52.070;8.596;2022-07-29T10:46:20;2.08;;;1.00;;
55069;SDS011;40967;52.070;8.596;2022-07-29T10:54:15;2.22;;;1.30;;
55069;SDS011;40967;52.070;8.596;2022-07-29T10:56:41;2.10;;;1.15;;
55069;SDS011;40967;52.070;8.596;2022-07-29T11:01:50;1.97;;;1.10;;
55069;SDS011;40967;52.070;8.596;2022-07-29T11:04:16;1.80;;;0.90;;
55069;SDS011;40967;52.070;8.596;2022-07-29T11:07:10;1.95;;;1.10;;
55069;SDS011;40967;52.070;8.596;2022-07-29T11:09:37;1.77;;;0.90;;
55069;SDS011;40967;52.070;8.596;2022-07-29T11:12:45;1.90;;;1.00;;
55069;SDS011;40967;52.070;8.596;2022-07-29T11:15:02;2.15;;;1.10;;
55069;SDS011;40967;52.070;8.596;2022-07-29T11:18:02;2.37;;;1.00;;
55069;SDS011;40967;52.070;8.596;2022-07-29T11:28:39;1.92;;;0.90;;
55069;SDS011;40967;52.070;8.596;2022-07-29T11:31:07;1.92;;;0.90;;
55069;SDS011;40967;52.070;8.596;2022-07-29T11:33:35;1.77;;;1.00;;
55069;SDS011;40967;52.070;8.596;2022-07-29T11:36:08;1.40;;;0.80;;
55069;SDS011;40967;52.070;8.596;2022-07-29T11:38:38;1.33;;;0.90;;
55069;SDS011;40967;52.070;8.596;2022-07-29T11:43:52;2.00;;;1.00;;
55069;SDS011;40967;52.070;8.596;2022-07-29T11:49:21;2.05;;;1.00;;
55069;SDS011;40967;52.070;8.596;2022-07-29T11:51:55;2.78;;;1.13;;
55069;SDS011;40967;52.070;8.596;2022-07-29T11:54:32;4.13;;;1.42;;
55069;SDS011;40967;52.070;8.596;2022-07-29T11:56:59;2.42;;;1.38;;
55069;SDS011;40967;52.070;8.596;2022-07-29T11:59:25;1.58;;;0.90;;
55069;SDS011;40967;52.070;8.596;2022-07-29T12:01:52;1.42;;;0.80;;
55069;SDS011;40967;52.070;8.596;2022-07-29T12:04:19;2.22;;;1.10;;
55069;SDS011;40967;52.070;8.596;2022-07-29T12:06:48;1.47;;;0.90;;
55069;SDS011;40967;52.070;8.596;2022-07-29T12:09:18;1.08;;;0.70;;
55069;SDS011;40967;52.070;8.596;2022-07-29T12:11:43;2.25;;;1.05;;
55069;SDS011;40967;52.070;8.596;2022-07-29T12:14:24;2.08;;;0.90;;
55069;SDS011;40967;52.070;8.596;2022-07-29T12:16:57;2.10;;;0.90;;
55069;SDS011;40967;52.070;8.596;2022-07-29T12:19:23;2.38;;;1.10;;
55069;SDS011;40967;52.070;8.596;2022-07-29T12:21:53;2.45;;;0.98;;
55069;SDS011;40967;52.070;8.596;2022-07-29T12:24:19;1.83;;;0.98;;
55069;SDS011;40967;52.070;8.596;2022-07-29T12:26:58;1.70;;;0.90;;
55069;SDS011;40967;52.070;8.596;2022-07-29T12:29:24;1.48;;;0.82;;
55069;SDS011;40967;52.070;8.596;2022-07-29T12:31:54;2.15;;;0.90;;
55069;SDS011;40967;52.070;8.596;2022-07-29T12:34:22;2.55;;;1.33;;
55069;SDS011;40967;52.070;8.596;2022-07-29T12:36:49;2.03;;;1.00;;
55069;SDS011;40967;52.070;8.596;2022-07-29T12:39:17;1.95;;;0.98;;
55069;SDS011;40967;52.070;8.596;2022-07-29T12:41:43;3.20;;;1.08;;
55069;SDS011;40967;52.070;8.596;2022-07-29T12:44:09;2.50;;;1.00;;
55069;SDS011;40967;52.070;8.596;2022-07-29T12:46:35;2.27;;;1.07;;
55069;SDS011;40967;52.070;8.596;2022-07-29T12:49:01;1.33;;;0.77;;
55069;SDS011;40967;52.070;8.596;2022-07-29T12:51:37;2.17;;;0.90;;
55069;SDS011;40967;52.070;8.596;2022-07-29T12:56:39;1.40;;;0.93;;
55069;SDS011;40967;52.070;8.596;2022-07-29T12:59:16;1.30;;;0.75;;
55069;SDS011;40967;52.070;8.596;2022-07-29T13:01:47;0.93;;;0.70;;
55069;SDS011;40967;52.070;8.596;2022-07-29T13:04:27;1.73;;;0.90;;
55069;SDS011;40967;52.070;8.596;2022-07-29T13:06:58;2.15;;;1.00;;
55069;SDS011;40967;52.070;8.596;2022-07-29T13:09:40;1.98;;;1.00;;
55069;SDS011;40967;52.070;8.596;2022-07-29T13:12:11;2.20;;;1.08;;
55069;SDS011;40967;52.070;8.596;2022-07-29T13:14:42;1.42;;;0.80;;
55069;SDS011;40967;52.070;8.596;2022-07-29T13:17:13;1.77;;;0.70;;
55069;SDS011;40967;52.070;8.596;2022-07-29T13:19:46;0.82;;;0.60;;
55069;SDS011;40967;52.070;8.596;2022-07-29T13:22:16;1.53;;;0.90;;
55069;SDS011;40967;52.070;8.596;2022-07-29T13:27:17;1.20;;;0.80;;
55069;SDS011;40967;52.070;8.596;2022-07-29T13:29:44;1.53;;;0.90;;
55069;SDS011;40967;52.070;8.596;2022-07-29T13:32:10;3.17;;;0.90;;
55069;SDS011;40967;52.070;8.596;2022-07-29T13:34:36;1.92;;;0.80;;
55069;SDS011;40967;52.070;8.596;2022-07-29T13:37:02;1.57;;;0.80;;
55069;SDS011;40967;52.070;8.596;2022-07-29T13:39:27;1.27;;;0.70;;
55069;SDS011;40967;52.070;8.596;2022-07-29T13:41:52;2.17;;;0.77;;
55069;SDS011;40967;52.070;8.596;2022-07-29T13:44:18;0.77;;;0.50;;
55069;SDS011;40967;52.070;8.596;2022-07-29T13:46:43;0.93;;;0.60;;
55069;SDS011;40967;52.070;8.596;2022-07-29T13:49:08;0.70;;;0.43;;
55069;SDS011;40967;52.070;8.596;2022-07-29T13:51:35;1.50;;;0.60;;
55069;SDS011;40967;52.070;8.596;2022-07-29T13:54:01;1.20;;;0.60;;
55069;SDS011;40967;52.070;8.596;2022-07-29T13:56:26;0.83;;;0.50;;
55069;SDS011;40967;52.070;8.596;2022-07-29T13:58:52;0.90;;;0.60;;
55069;SDS011;40967;52.070;8.596;2022-07-29T14:01:17;1.17;;;0.67;;
55069;SDS011;40967;52.070;8.596;2022-07-29T14:03:42;1.95;;;0.75;;
55069;SDS011;40967;52.070;8.596;2022-07-29T14:06:08;1.20;;;0.70;;
55069;SDS011;40967;52.070;8.596;2022-07-29T14:08:33;1.20;;;0.60;;
55069;SDS011;40967;52.070;8.596;2022-07-29T14:10:59;1.30;;;0.60;;
55069;SDS011;40967;52.070;8.596;2022-07-29T14:13:24;0.77;;;0.50;;
55069;SDS011;40967;52.070;8.596;2022-07-29T14:15:50;0.70;;;0.50;;
55069;SDS011;40967;52.070;8.596;2022-07-29T14:18:15;0.60;;;0.50;;
55069;SDS011;40967;52.070;8.596;2022-07-29T14:20:40;0.97;;;0.43;;
55069;SDS011;40967;52.070;8.596;2022-07-29T14:23:06;0.73;;;0.38;;
55069;SDS011;40967;52.070;8.596;2022-07-29T14:25:31;0.30;;;0.20;;
55069;SDS011;40967;52.070;8.596;2022-07-29T14:27:57;0.63;;;0.30;;
55069;SDS011;40967;52.070;8.596;2022-07-29T14:30:22;0.30;;;0.30;;
55069;SDS011;40967;52.070;8.596;2022-07-29T14:32:47;0.30;;;0.30;;
55069;SDS011;40967;52.070;8.596;2022-07-29T14:35:13;0.43;;;0.30;;
55069;SDS011;40967;52.070;8.596;2022-07-29T14:37:38;0.60;;;0.38;;
55069;SDS011;40967;52.070;8.596;2022-07-29T14:40:04;0.90;;;0.40;;
55069;SDS011;40967;52.070;8.596;2022-07-29T14:42:30;0.55;;;0.40;;
55069;SDS011;40967;52.070;8.596;2022-07-29T14:44:56;0.50;;;0.30;;
55069;SDS011;40967;52.070;8.596;2022-07-29T14:47:22;0.30;;;0.23;;
55069;SDS011;40967;52.070;8.596;2022-07-29T14:49:48;0.35;;;0.30;;
55069;SDS011;40967;52.070;8.596;2022-07-29T14:52:13;0.30;;;0.30;;
55069;SDS011;40967;52.070;8.596;2022-07-29T14:54:39;0.67;;;0.30;;
55069;SDS011;40967;52.070;8.596;2022-07-29T14:57:04;0.60;;;0.40;;
55069;SDS011;40967;52.070;8.596;2022-07-29T14:59:30;0.30;;;0.25;;
55069;SDS011;40967;52.070;8.596;2022-07-29T15:01:55;0.30;;;0.30;;
55069;SDS011;40967;52.070;8.596;2022-07-29T15:04:20;1.00;;;0.60;;
55069;SDS011;40967;52.070;8.596;2022-07-29T15:06:46;0.80;;;0.50;;
55069;SDS011;40967;52.070;8.596;2022-07-29T15:09:12;1.13;;;0.50;;
55069;SDS011;40967;52.070;8.596;2022-07-29T15:11:38;0.90;;;0.47;;
55069;SDS011;40967;52.070;8.596;2022-07-29T15:14:03;0.97;;;0.53;;
55069;SDS011;40967;52.070;8.596;2022-07-29T15:16:28;1.13;;;0.60;;
55069;SDS011;40967;52.070;8.596;2022-07-29T15:18:54;1.00;;;0.60;;
55069;SDS011;40967;52.070;8.596;2022-07-29T15:21:21;0.80;;;0.50;;
55069;SDS011;40967;52.070;8.596;2022-07-29T15:23:46;1.10;;;0.70;;
55069;SDS011;40967;52.070;8.596;2022-07-29T15:26:12;0.97;;;0.50;;
55069;SDS011;40967;52.070;8.596;2022-07-29T15:28:37;0.77;;;0.57;;
55069;SDS011;40967;52.070;8.596;2022-07-29T15:31:03;0.90;;;0.50;;
55069;SDS011;40967;52.070;8.596;2022-07-29T15:33:28;0.65;;;0.50;;
55069;SDS011;40967;52.070;8.596;2022-07-29T15:35:55;1.20;;;0.70;;
55069;SDS011;40967;52.070;8.596;2022-07-29T15:38:21;1.05;;;0.55;;
55069;SDS011;40967;52.070;8.596;2022-07-29T15:40:46;1.03;;;0.50;;
55069;SDS011;40967;52.070;8.596;2022-07-29T15:43:11;1.50;;;0.60;;